Time;durP1;ratioP1;P1;durP2;ratioP2;P2;SDS_P1;SDS_P2;PMS_P1;PMS_P2;Temp;Humidity;BMP_temperature;BMP_pressure;BME280_temperature;BME280_humidity;BME280_pressure;Samples;Min_cycle;Max_cycle;Signal;HPM_P1;HPM_P2
2022/06/22 00:00:01;;;;;;;;;;;14.50;99.90;;;;;;4592415;19;20349;-33
2022/06/22 00:01:43;;;;;;;;;;;14.50;99.90;;;;;;4590897;19;20031;-32
2022/06/22 00:03:13;;;;;;;;;;;14.50;99.90;;;;;;4591621;19;19925;-32
2022/06/22 00:04:48;;;;;;;;;;;14.50;99.90;;;;;;4590982;19;19919;-32
2022/06/22 00:06:27;;;;;;;;;;;14.50;99.90;;;;;;4592336;19;19921;-32
2022/06/22 00:07:59;;;;;;;;;;;14.50;99.90;;;;;;4590868;19;19919;-32
2022/06/22 00:09:31;;;;;;;;;;;14.50;99.90;;;;;;4591036;19;19918;-32
2022/06/22 00:11:02;;;;;;;;;;;14.50;99.90;;;;;;4591228;19;19915;-33
2022/06/22 00:12:33;;;;;;;;;;;14.40;99.90;;;;;;4592894;19;20235;-32
2022/06/22 00:14:04;;;;;;;;;;;14.50;99.90;;;;;;4590735;19;19971;-32
2022/06/22 00:15:39;;;;;;;;;;;14.50;99.90;;;;;;4590980;19;19915;-32
2022/06/22 00:17:19;;;;;;;;;;;14.50;99.90;;;;;;4592072;19;19918;-32
2022/06/22 00:18:51;;;;;;;;;;;14.40;99.90;;;;;;4592239;19;19911;-33
2022/06/22 00:20:23;;;;;;;;;;;14.50;99.90;;;;;;4590436;19;20326;-32
2022/06/22 00:21:54;;;;;;;;;;;14.40;99.90;;;;;;4591326;19;19923;-31
2022/06/22 00:23:26;;;;;;;;;;;14.40;99.90;;;;;;4590585;19;20046;-32
2022/06/22 00:25:01;;;;;;;;;;;14.40;99.90;;;;;;4591610;19;19917;-32
2022/06/22 00:26:33;;;;;;;;;;;14.40;99.90;;;;;;4591523;19;19914;-32
2022/06/22 00:28:23;;;;;;;;;;;14.40;99.90;;;;;;4591667;19;20347;-32
2022/06/22 00:30:09;;;;;;;;;;;14.40;99.90;;;;;;4591526;19;19946;-35
2022/06/22 00:31:40;;;;;;;;;;;14.40;99.90;;;;;;4591468;19;19934;-32
2022/06/22 00:33:13;;;;;;;;;;;14.40;99.90;;;;;;4592315;19;19934;-32
2022/06/22 00:34:44;;;;;;;;;;;14.40;99.90;;;;;;4591343;19;19915;-32
2022/06/22 00:36:18;;;;;;;;;;;14.40;99.90;;;;;;4591823;19;19930;-32
2022/06/22 00:37:49;;;;;;;;;;;14.40;99.90;;;;;;4591027;19;19918;-33
2022/06/22 00:39:23;;;;;;;;;;;14.30;99.90;;;;;;4590420;19;19968;-32
2022/06/22 00:41:02;;;;;;;;;;;14.40;99.90;;;;;;4591121;19;19915;-32
2022/06/22 00:42:41;;;;;;;;;;;14.40;99.90;;;;;;4591750;19;19974;-32
2022/06/22 00:44:12;;;;;;;;;;;14.40;99.90;;;;;;4590889;19;19929;-36
2022/06/22 00:45:43;;;;;;;;;;;14.40;99.90;;;;;;4590342;19;19911;-33
2022/06/22 00:47:18;;;;;;;;;;;14.40;99.90;;;;;;4590759;19;19943;-32
2022/06/22 00:48:52;;;;;;;;;;;14.40;99.90;;;;;;4591540;19;19922;-33
2022/06/22 00:50:24;;;;;;;;;;;14.40;99.90;;;;;;4591451;19;19926;-32
2022/06/22 00:51:58;;;;;;;;;;;14.30;99.90;;;;;;4589842;19;19935;-32
2022/06/22 00:53:33;;;;;;;;;;;14.30;99.90;;;;;;4588765;19;19922;-33
2022/06/22 00:55:05;;;;;;;;;;;14.30;99.90;;;;;;4589646;19;19915;-32
2022/06/22 00:56:36;;;;;;;;;;;14.30;99.90;;;;;;4590852;19;20337;-32
2022/06/22 00:58:07;;;;;;;;;;;14.20;99.90;;;;;;4591561;19;19935;-33
2022/06/22 00:59:39;;;;;;;;;;;14.30;99.90;;;;;;4591119;19;19946;-32
2022/06/22 01:01:21;;;;;;;;;;;14.30;99.90;;;;;;4589918;19;20374;-32
2022/06/22 01:02:53;;;;;;;;;;;14.20;99.90;;;;;;4590999;19;20321;-32
2022/06/22 01:04:25;;;;;;;;;;;14.20;99.90;;;;;;4591782;19;19915;-32
2022/06/22 01:05:57;;;;;;;;;;;14.20;99.90;;;;;;4589726;19;19935;-31
2022/06/22 01:07:28;;;;;;;;;;;14.20;99.90;;;;;;4589945;19;20012;-33
2022/06/22 01:09:13;;;;;;;;;;;14.30;99.90;;;;;;4591155;19;19931;-32
2022/06/22 01:10:51;;;;;;;;;;;14.20;99.90;;;;;;4591342;19;20325;-32
2022/06/22 01:12:48;;;;;;;;;;;14.20;99.90;;;;;;4590766;19;20377;-33
2022/06/22 01:14:40;;;;;;;;;;;14.30;99.90;;;;;;4590313;19;19922;-36
2022/06/22 01:16:18;;;;;;;;;;;14.20;99.90;;;;;;4590515;19;20324;-32
2022/06/22 01:18:07;;;;;;;;;;;14.20;99.90;;;;;;4589884;19;19974;-32
2022/06/22 01:19:51;;;;;;;;;;;14.20;99.90;;;;;;4590986;19;19970;-32
2022/06/22 01:21:28;;;;;;;;;;;14.20;99.90;;;;;;4591585;19;19915;-33
2022/06/22 01:23:05;;;;;;;;;;;14.20;99.90;;;;;;4591430;19;19931;-33
2022/06/22 01:24:48;;;;;;;;;;;14.20;99.90;;;;;;4589595;19;19966;-31
2022/06/22 01:26:22;;;;;;;;;;;14.20;99.90;;;;;;4589722;19;19918;-32
2022/06/22 01:27:53;;;;;;;;;;;14.20;99.90;;;;;;4590819;19;19921;-34
2022/06/22 01:29:24;;;;;;;;;;;14.10;99.90;;;;;;4589576;19;19915;-33
2022/06/22 01:30:56;;;;;;;;;;;14.10;99.90;;;;;;4590137;19;19921;-32
2022/06/22 01:32:31;;;;;;;;;;;14.10;99.90;;;;;;4590886;19;19919;-33
2022/06/22 01:34:02;;;;;;;;;;;14.10;99.90;;;;;;4589749;19;19975;-31
2022/06/22 01:35:36;;;;;;;;;;;14.10;99.90;;;;;;4589906;19;19929;-33
2022/06/22 01:37:11;;;;;;;;;;;14.10;99.90;;;;;;4589272;19;19926;-32
2022/06/22 01:38:43;;;;;;;;;;;14.10;99.90;;;;;;4589818;19;19918;-32
2022/06/22 01:40:17;;;;;;;;;;;14.10;99.90;;;;;;4590046;19;20342;-32
2022/06/22 01:41:55;;;;;;;;;;;14.10;99.90;;;;;;4590692;19;20242;-32
2022/06/22 01:43:30;;;;;;;;;;;14.10;99.90;;;;;;4589819;19;19926;-32
2022/06/22 01:45:04;;;;;;;;;;;14.10;99.90;;;;;;4589465;19;19915;-32
2022/06/22 01:46:50;;;;;;;;;;;14.10;99.90;;;;;;4589958;19;19919;-32
2022/06/22 01:48:28;;;;;;;;;;;14.10;99.90;;;;;;4590356;19;19918;-32
2022/06/22 01:49:58;;;;;;;;;;;14.00;99.90;;;;;;4589037;19;19922;-32
2022/06/22 01:51:33;;;;;;;;;;;14.00;99.90;;;;;;4589965;19;19970;-34
2022/06/22 01:53:13;;;;;;;;;;;14.00;99.90;;;;;;4589923;19;20318;-32
2022/06/22 01:54:48;;;;;;;;;;;14.00;99.90;;;;;;4589621;19;20329;-32
2022/06/22 01:56:19;;;;;;;;;;;14.10;99.90;;;;;;4589039;19;19919;-32
2022/06/22 01:58:01;;;;;;;;;;;14.10;99.90;;;;;;4589637;19;19929;-33
2022/06/22 01:59:46;;;;;;;;;;;14.00;99.90;;;;;;4590242;19;19975;-32
2022/06/22 02:01:41;;;;;;;;;;;14.00;99.90;;;;;;4590240;19;19915;-33
2022/06/22 02:03:13;;;;;;;;;;;14.00;99.90;;;;;;4589540;19;19929;-34
2022/06/22 02:04:47;;;;;;;;;;;14.00;99.90;;;;;;4589365;19;19923;-33
2022/06/22 02:08:25;;;;;;;;;;;13.90;99.90;;;;;;4593715;19;20337;-33
2022/06/22 02:10:09;;;;;;;;;;;14.00;99.90;;;;;;4594407;19;20332;-32
2022/06/22 02:11:43;;;;;;;;;;;13.90;99.90;;;;;;4594091;19;19916;-32
2022/06/22 02:13:21;;;;;;;;;;;14.00;99.90;;;;;;4594660;19;19957;-34
2022/06/22 02:14:53;;;;;;;;;;;14.00;99.90;;;;;;4594245;19;20263;-32
2022/06/22 02:16:25;;;;;;;;;;;14.00;99.90;;;;;;4593314;19;19923;-31
2022/06/22 02:17:56;;;;;;;;;;;14.00;99.90;;;;;;4593307;19;19922;-33
2022/06/22 02:19:27;;;;;;;;;;;14.00;99.90;;;;;;4593921;19;19911;-33
2022/06/22 02:20:59;;;;;;;;;;;14.00;99.90;;;;;;4593981;19;19910;-32
2022/06/22 02:22:30;;;;;;;;;;;14.00;99.90;;;;;;4594559;19;19923;-31
2022/06/22 02:24:07;;;;;;;;;;;14.00;99.90;;;;;;4593112;19;19974;-32
2022/06/22 02:25:40;;;;;;;;;;;14.00;99.90;;;;;;4595140;19;19971;-32
2022/06/22 02:27:16;;;;;;;;;;;13.90;99.90;;;;;;4593121;19;19948;-31
2022/06/22 02:28:47;;;;;;;;;;;14.00;99.90;;;;;;4593505;19;20361;-32
2022/06/22 02:30:18;;;;;;;;;;;13.90;99.90;;;;;;4594142;19;19918;-31
2022/06/22 02:31:51;;;;;;;;;;;13.90;99.90;;;;;;4593532;19;19915;-32
2022/06/22 02:33:22;;;;;;;;;;;13.90;99.90;;;;;;4593569;19;20353;-33
2022/06/22 02:34:54;;;;;;;;;;;13.90;99.90;;;;;;4593310;19;19915;-32
2022/06/22 02:36:25;;;;;;;;;;;13.90;99.90;;;;;;4593370;19;19928;-33
2022/06/22 02:38:00;;;;;;;;;;;13.90;99.90;;;;;;4592759;19;19915;-32
2022/06/22 02:39:31;;;;;;;;;;;13.90;99.90;;;;;;4593600;19;19919;-32
2022/06/22 02:44:42;;;;;;;;;;;13.90;99.90;;;;;;4592726;19;19915;-38
2022/06/22 02:46:13;;;;;;;;;;;13.90;99.90;;;;;;4593198;19;20342;-42
2022/06/22 02:47:45;;;;;;;;;;;13.90;99.90;;;;;;4590802;19;20369;-43
2022/06/22 02:49:28;;;;;;;;;;;13.90;99.90;;;;;;4592278;19;19915;-37
2022/06/22 02:51:02;;;;;;;;;;;13.90;99.90;;;;;;4592780;19;19918;-37
2022/06/22 02:53:02;;;;;;;;;;;13.90;99.90;;;;;;4589875;19;19974;-38
2022/06/22 02:54:35;;;;;;;;;;;13.90;99.90;;;;;;4589889;19;20326;-41
2022/06/22 02:56:07;;;;;;;;;;;14.20;99.90;;;;;;4591905;19;19935;-36
2022/06/22 02:57:53;;;;;;;;;;;14.50;99.90;;;;;;4591908;19;19915;-42
2022/06/22 02:59:24;;;;;;;;;;;14.80;99.90;;;;;;4592752;19;19911;-40
2022/06/22 03:00:55;;;;;;;;;;;15.10;99.90;;;;;;4593021;19;19923;-31
2022/06/22 03:02:26;;;;;;;;;;;15.40;99.90;;;;;;4593340;19;19922;-37
2022/06/22 03:03:58;;;;;;;;;;;15.50;99.90;;;;;;4591721;19;19918;-40
2022/06/22 03:05:29;;;;;;;;;;;15.70;99.90;;;;;;4593740;19;19926;-38
2022/06/22 03:07:00;;;;;;;;;;;15.80;99.90;;;;;;4593350;19;19919;-39
2022/06/22 03:08:31;;;;;;;;;;;16.00;99.90;;;;;;4592292;19;19911;-33
2022/06/22 03:10:02;;;;;;;;;;;16.00;99.90;;;;;;4593465;19;19926;-37
2022/06/22 03:11:33;;;;;;;;;;;16.10;99.90;;;;;;4593578;19;20000;-33
2022/06/22 03:13:04;;;;;;;;;;;16.20;99.90;;;;;;4592050;19;20334;-36
2022/06/22 03:14:36;;;;;;;;;;;16.30;99.90;;;;;;4592671;19;19918;-32
2022/06/22 03:16:16;;;;;;;;;;;16.30;99.90;;;;;;4591854;19;19954;-37
2022/06/22 03:17:47;;;;;;;;;;;16.40;99.90;;;;;;4592383;19;20302;-35
2022/06/22 03:19:31;;;;;;;;;;;16.50;99.90;;;;;;4592506;19;19939;-36
2022/06/22 03:21:03;;;;;;;;;;;16.50;99.90;;;;;;4592144;19;20377;-34
2022/06/22 03:22:35;;;;;;;;;;;16.60;99.90;;;;;;4592620;19;19919;-43
2022/06/22 03:24:11;;;;;;;;;;;16.70;99.90;;;;;;4592474;19;19918;-33
2022/06/22 03:25:46;;;;;;;;;;;16.70;99.90;;;;;;4591445;19;19915;-35
2022/06/22 03:27:19;;;;;;;;;;;16.80;99.90;;;;;;4592029;19;19922;-32
2022/06/22 03:28:51;;;;;;;;;;;16.80;99.90;;;;;;4592344;19;19911;-45
2022/06/22 03:30:23;;;;;;;;;;;16.80;99.90;;;;;;4592933;19;20368;-32
2022/06/22 03:31:55;;;;;;;;;;;16.90;99.90;;;;;;4590480;19;20258;-33
2022/06/22 03:33:29;;;;;;;;;;;16.90;99.90;;;;;;4591413;19;19955;-33
2022/06/22 03:35:00;;;;;;;;;;;17.00;99.90;;;;;;4593598;19;19934;-32
2022/06/22 03:36:33;;;;;;;;;;;17.00;99.90;;;;;;4592539;19;19959;-35
2022/06/22 03:38:08;;;;;;;;;;;17.00;99.90;;;;;;4591580;19;19922;-37
2022/06/22 03:39:41;;;;;;;;;;;17.10;99.90;;;;;;4594223;19;19936;-31
2022/06/22 03:41:17;;;;;;;;;;;17.10;99.90;;;;;;4594156;19;20101;-33
2022/06/22 03:42:54;;;;;;;;;;;17.10;99.90;;;;;;4591285;19;19915;-37
2022/06/22 03:44:27;;;;;;;;;;;17.20;99.90;;;;;;4589693;19;19915;-40
2022/06/22 03:46:05;;;;;;;;;;;17.20;99.90;;;;;;4591629;19;19914;-36
2022/06/22 03:47:49;;;;;;;;;;;17.40;99.90;;;;;;4592015;19;19922;-30
2022/06/22 03:49:31;;;;;;;;;;;17.40;99.90;;;;;;4590050;19;19982;-33
2022/06/22 03:51:04;;;;;;;;;;;17.50;99.90;;;;;;4591791;19;19915;-41
2022/06/22 03:52:37;;;;;;;;;;;17.60;99.90;;;;;;4590204;19;19918;-37
2022/06/22 03:54:28;;;;;;;;;;;17.70;99.90;;;;;;4590699;19;20245;-39
2022/06/22 03:55:59;;;;;;;;;;;17.70;99.90;;;;;;4588544;19;19923;-38
2022/06/22 03:57:33;;;;;;;;;;;17.80;99.90;;;;;;4590197;19;19911;-32
2022/06/22 03:59:03;;;;;;;;;;;17.80;99.90;;;;;;4591861;19;20311;-32
2022/06/22 04:00:34;;;;;;;;;;;17.90;99.90;;;;;;4590475;19;19922;-38
2022/06/22 04:02:05;;;;;;;;;;;17.00;99.90;;;;;;4592018;19;19930;-36
2022/06/22 04:03:37;;;;;;;;;;;15.50;99.90;;;;;;4590853;19;19917;-32
2022/06/22 04:05:10;;;;;;;;;;;15.00;99.90;;;;;;4589889;19;19919;-33
2022/06/22 04:06:45;;;;;;;;;;;14.80;99.90;;;;;;4590987;19;19915;-39
2022/06/22 04:08:19;;;;;;;;;;;14.70;99.90;;;;;;4589888;19;19989;-41
2022/06/22 04:09:55;;;;;;;;;;;14.70;99.90;;;;;;4590401;19;19990;-36
2022/06/22 04:11:40;;;;;;;;;;;14.70;99.90;;;;;;4591173;19;19944;-32
2022/06/22 04:13:19;;;;;;;;;;;14.70;99.90;;;;;;4589579;19;19929;-32
2022/06/22 04:14:59;;;;;;;;;;;14.70;99.90;;;;;;4589550;19;20411;-33
2022/06/22 04:16:37;;;;;;;;;;;14.80;99.90;;;;;;4590245;19;19925;-32
2022/06/22 04:18:12;;;;;;;;;;;14.70;99.90;;;;;;4589218;19;19915;-37
2022/06/22 04:19:44;;;;;;;;;;;14.80;99.90;;;;;;4589210;19;19919;-44
2022/06/22 04:21:18;;;;;;;;;;;14.80;99.90;;;;;;4589578;19;19915;-38
2022/06/22 04:22:51;;;;;;;;;;;14.80;99.90;;;;;;4589771;19;19915;-40
2022/06/22 04:24:23;;;;;;;;;;;14.80;99.90;;;;;;4591256;19;19923;-42
2022/06/22 04:25:58;;;;;;;;;;;14.80;99.90;;;;;;4589403;19;20348;-39
2022/06/22 04:27:37;;;;;;;;;;;14.80;99.90;;;;;;4589401;19;19952;-33
2022/06/22 04:29:31;;;;;;;;;;;14.80;99.90;;;;;;4589666;19;20326;-34
2022/06/22 04:31:02;;;;;;;;;;;14.90;99.90;;;;;;4589221;19;19919;-40
2022/06/22 04:32:36;;;;;;;;;;;14.90;99.90;;;;;;4589678;19;19949;-38
2022/06/22 04:34:08;;;;;;;;;;;14.90;99.90;;;;;;4588138;19;19911;-31
2022/06/22 04:35:43;;;;;;;;;;;14.90;99.90;;;;;;4587975;19;19951;-38
2022/06/22 04:37:20;;;;;;;;;;;15.00;99.90;;;;;;4587683;19;20350;-39
2022/06/22 04:38:57;;;;;;;;;;;15.00;99.90;;;;;;4589565;19;19914;-32
2022/06/22 04:40:28;;;;;;;;;;;15.00;99.90;;;;;;4588603;19;20022;-34
2022/06/22 04:42:00;;;;;;;;;;;15.00;99.90;;;;;;4588709;19;19928;-39
2022/06/22 04:43:31;;;;;;;;;;;15.00;99.90;;;;;;4589005;19;19941;-34
2022/06/22 04:45:03;;;;;;;;;;;15.10;99.90;;;;;;4588764;19;20392;-33
2022/06/22 04:46:35;;;;;;;;;;;15.10;99.90;;;;;;4588794;19;19966;-34
2022/06/22 04:48:08;;;;;;;;;;;15.10;99.90;;;;;;4588820;19;19922;-38
2022/06/22 04:49:58;;;;;;;;;;;15.10;99.90;;;;;;4589234;19;20327;-35
2022/06/22 04:51:32;;;;;;;;;;;15.10;99.90;;;;;;4589494;19;19918;-43
2022/06/22 04:53:03;;;;;;;;;;;15.20;99.90;;;;;;4587405;19;19918;-39
2022/06/22 04:54:35;;;;;;;;;;;15.20;99.90;;;;;;4588431;19;19926;-32
2022/06/22 04:56:07;;;;;;;;;;;15.20;99.90;;;;;;4588480;19;19967;-33
2022/06/22 04:57:38;;;;;;;;;;;15.20;99.90;;;;;;4589367;19;19921;-32
2022/06/22 04:59:10;;;;;;;;;;;15.20;99.90;;;;;;4588358;19;19919;-32
2022/06/22 05:00:41;;;;;;;;;;;15.30;99.90;;;;;;4588414;19;19926;-32
2022/06/22 05:02:13;;;;;;;;;;;15.30;99.90;;;;;;4588743;19;19918;-33
2022/06/22 05:03:44;;;;;;;;;;;15.30;99.90;;;;;;4588043;19;19990;-32
2022/06/22 05:05:22;;;;;;;;;;;15.30;99.90;;;;;;4588465;19;20235;-32
2022/06/22 05:06:57;;;;;;;;;;;15.30;99.90;;;;;;4588699;19;19919;-32
2022/06/22 05:08:31;;;;;;;;;;;15.30;99.90;;;;;;4589758;19;19970;-35
2022/06/22 05:10:10;;;;;;;;;;;15.40;99.90;;;;;;4589920;19;19935;-33
2022/06/22 05:11:42;;;;;;;;;;;15.40;99.90;;;;;;4589438;19;19918;-33
2022/06/22 05:13:15;;;;;;;;;;;15.40;99.90;;;;;;4589456;19;19927;-32
2022/06/22 05:14:46;;;;;;;;;;;15.40;99.90;;;;;;4590644;19;19915;-32
2022/06/22 05:16:19;;;;;;;;;;;15.40;99.90;;;;;;4590519;19;20276;-33
2022/06/22 05:17:50;;;;;;;;;;;15.40;99.90;;;;;;4590216;19;19915;-35
2022/06/22 05:19:21;;;;;;;;;;;15.40;99.90;;;;;;4590150;19;19923;-32
2022/06/22 05:21:12;;;;;;;;;;;15.40;99.90;;;;;;4590096;19;19915;-32
2022/06/22 05:22:43;;;;;;;;;;;15.40;99.90;;;;;;4589553;19;19934;-33
2022/06/22 05:24:23;;;;;;;;;;;15.50;99.90;;;;;;4588787;19;19927;-34
2022/06/22 05:25:54;;;;;;;;;;;15.50;99.90;;;;;;4590402;19;20282;-32
2022/06/22 05:27:29;;;;;;;;;;;15.50;99.90;;;;;;4589150;19;20330;-32
2022/06/22 05:29:13;;;;;;;;;;;15.50;99.90;;;;;;4590006;19;19914;-41
2022/06/22 05:30:44;;;;;;;;;;;15.60;99.90;;;;;;4588568;19;20227;-39
2022/06/22 05:32:17;;;;;;;;;;;15.60;99.90;;;;;;4590670;19;19923;-33
2022/06/22 05:33:49;;;;;;;;;;;15.60;99.90;;;;;;4589941;19;19919;-40
2022/06/22 05:35:30;;;;;;;;;;;15.60;99.90;;;;;;4587750;19;19950;-32
2022/06/22 05:37:05;;;;;;;;;;;15.60;99.90;;;;;;4590186;19;19919;-32
2022/06/22 05:38:38;;;;;;;;;;;15.60;99.90;;;;;;4590791;19;19987;-33
2022/06/22 05:40:09;;;;;;;;;;;15.60;99.90;;;;;;4592591;19;19935;-33
2022/06/22 05:41:41;;;;;;;;;;;15.70;99.90;;;;;;4595643;19;20266;-33
2022/06/22 05:43:12;;;;;;;;;;;15.70;99.90;;;;;;4593852;19;20533;-32
2022/06/22 05:44:43;;;;;;;;;;;15.70;99.90;;;;;;4592447;19;19923;-32
2022/06/22 05:46:14;;;;;;;;;;;15.80;99.90;;;;;;4595572;19;19911;-34
2022/06/22 05:47:45;;;;;;;;;;;15.70;99.90;;;;;;4595251;19;19923;-33
2022/06/22 05:49:17;;;;;;;;;;;15.80;99.90;;;;;;4594501;19;19926;-32
2022/06/22 05:50:50;;;;;;;;;;;15.80;99.90;;;;;;4593910;19;19948;-32
2022/06/22 05:52:30;;;;;;;;;;;15.80;99.90;;;;;;4592788;19;19922;-32
2022/06/22 05:54:02;;;;;;;;;;;15.80;99.90;;;;;;4593654;19;20316;-32
2022/06/22 05:55:42;;;;;;;;;;;15.80;99.90;;;;;;4590527;19;20352;-33
2022/06/22 05:57:16;;;;;;;;;;;15.80;99.90;;;;;;4593785;19;19919;-33
2022/06/22 05:58:49;;;;;;;;;;;15.90;99.90;;;;;;4592776;19;19926;-32
2022/06/22 06:00:25;;;;;;;;;;;15.90;99.90;;;;;;4594763;19;19926;-32
2022/06/22 06:01:59;;;;;;;;;;;15.90;99.90;;;;;;4592991;19;19929;-38
2022/06/22 06:03:49;;;;;;;;;;;15.90;99.90;;;;;;4592140;19;19932;-36
2022/06/22 06:05:23;;;;;;;;;;;15.90;99.90;;;;;;4593855;19;19988;-32
2022/06/22 06:06:54;;;;;;;;;;;16.00;99.90;;;;;;4592935;19;20340;-31
2022/06/22 06:08:45;;;;;;;;;;;16.10;99.90;;;;;;4594257;19;19931;-35
2022/06/22 06:10:18;;;;;;;;;;;16.00;99.90;;;;;;4593768;19;19926;-38
2022/06/22 06:11:51;;;;;;;;;;;16.10;99.90;;;;;;4592879;19;20250;-36
2022/06/22 06:13:48;;;;;;;;;;;16.10;99.90;;;;;;4593714;19;20700;-40
2022/06/22 06:15:19;;;;;;;;;;;16.20;99.90;;;;;;4593269;19;19997;-37
2022/06/22 06:16:51;;;;;;;;;;;16.20;99.90;;;;;;4592107;19;19948;-38
2022/06/22 06:18:32;;;;;;;;;;;16.20;99.90;;;;;;4593576;19;19939;-38
2022/06/22 06:20:04;;;;;;;;;;;16.20;99.90;;;;;;4592870;19;20338;-32
2022/06/22 06:21:36;;;;;;;;;;;16.20;99.90;;;;;;4594086;19;19919;-33
2022/06/22 06:23:12;;;;;;;;;;;16.20;99.90;;;;;;4592534;19;20413;-33
2022/06/22 06:28:55;;;;;;;;;;;16.30;99.90;;;;;;4591497;19;19917;-33
2022/06/22 06:30:28;;;;;;;;;;;16.30;99.90;;;;;;4591914;19;19914;-34
2022/06/22 06:32:04;;;;;;;;;;;16.40;99.90;;;;;;4591510;19;19978;-32
2022/06/22 06:33:35;;;;;;;;;;;16.40;99.90;;;;;;4592023;19;19911;-33
2022/06/22 06:35:12;;;;;;;;;;;16.40;99.90;;;;;;4591648;19;19915;-32
2022/06/22 06:36:55;;;;;;;;;;;16.50;99.90;;;;;;4591603;19;19915;-33
2022/06/22 06:38:27;;;;;;;;;;;16.40;99.90;;;;;;4591834;19;19970;-33
2022/06/22 06:39:58;;;;;;;;;;;16.50;99.90;;;;;;4592282;19;20069;-33
2022/06/22 06:41:41;;;;;;;;;;;16.50;99.90;;;;;;4591424;19;20015;-32
2022/06/22 06:43:21;;;;;;;;;;;16.50;99.90;;;;;;4591438;19;19915;-33
2022/06/22 06:44:53;;;;;;;;;;;16.60;99.90;;;;;;4591409;19;19921;-33
2022/06/22 06:46:27;;;;;;;;;;;16.60;99.90;;;;;;4591503;19;19919;-33
2022/06/22 06:48:01;;;;;;;;;;;16.70;99.90;;;;;;4591250;19;19948;-33
2022/06/22 06:49:46;;;;;;;;;;;16.60;99.90;;;;;;4591555;19;19952;-31
2022/06/22 06:51:17;;;;;;;;;;;16.60;99.90;;;;;;4589144;19;19930;-32
2022/06/22 06:53:10;;;;;;;;;;;16.60;99.90;;;;;;4589856;19;20378;-32
2022/06/22 06:54:46;;;;;;;;;;;16.70;99.90;;;;;;4591042;19;19931;-32
2022/06/22 06:56:26;;;;;;;;;;;16.70;99.90;;;;;;4591243;19;20361;-32
2022/06/22 06:57:57;;;;;;;;;;;16.70;99.90;;;;;;4590755;19;19990;-35
2022/06/22 06:59:28;;;;;;;;;;;16.70;99.90;;;;;;4590878;19;19922;-33
2022/06/22 07:00:59;;;;;;;;;;;16.80;99.90;;;;;;4590089;19;20015;-32
2022/06/22 07:02:31;;;;;;;;;;;16.80;99.90;;;;;;4591441;19;19910;-34
2022/06/22 07:04:07;;;;;;;;;;;16.80;99.90;;;;;;4589591;19;20255;-33
2022/06/22 07:05:38;;;;;;;;;;;16.90;99.90;;;;;;4591005;19;19926;-33
2022/06/22 07:07:27;;;;;;;;;;;16.90;99.90;;;;;;4591258;19;20335;-32
2022/06/22 07:09:02;;;;;;;;;;;16.90;99.90;;;;;;4591724;19;19922;-35
2022/06/22 07:10:35;;;;;;;;;;;16.90;99.90;;;;;;4590777;19;20346;-33
2022/06/22 07:12:26;;;;;;;;;;;16.90;99.90;;;;;;4590776;19;20012;-33
2022/06/22 07:14:20;;;;;;;;;;;16.90;99.90;;;;;;4590550;19;19921;-32
2022/06/22 07:16:07;;;;;;;;;;;17.00;99.90;;;;;;4590272;19;19966;-33
2022/06/22 07:17:38;;;;;;;;;;;17.00;99.90;;;;;;4591140;19;19919;-34
2022/06/22 07:19:13;;;;;;;;;;;17.00;99.90;;;;;;4590679;19;19915;-32
2022/06/22 07:20:46;;;;;;;;;;;17.10;99.90;;;;;;4590464;19;19915;-32
2022/06/22 07:22:21;;;;;;;;;;;17.10;99.90;;;;;;4590940;19;19974;-32
2022/06/22 07:24:24;;;;;;;;;;;17.10;99.90;;;;;;4590181;19;19922;-31
2022/06/22 07:25:57;;;;;;;;;;;17.10;99.90;;;;;;4590622;19;19919;-31
2022/06/22 07:27:27;;;;;;;;;;;17.10;99.90;;;;;;4590588;19;19918;-31
2022/06/22 07:29:04;;;;;;;;;;;17.10;99.90;;;;;;4588951;19;19919;-34
2022/06/22 07:30:37;;;;;;;;;;;17.20;99.90;;;;;;4590430;19;20031;-38
2022/06/22 07:32:07;;;;;;;;;;;17.20;99.90;;;;;;4551847;19;19974;-33
2022/06/22 07:33:40;;;;;;;;;;;17.20;99.90;;;;;;4588300;19;19930;-32
2022/06/22 07:35:14;;;;;;;;;;;17.20;99.90;;;;;;4590456;19;20325;-32
2022/06/22 07:36:47;;;;;;;;;;;17.30;99.90;;;;;;4589891;19;19918;-32
2022/06/22 07:38:30;;;;;;;;;;;17.30;99.90;;;;;;4591104;19;19999;-32
2022/06/22 07:40:04;;;;;;;;;;;17.30;99.90;;;;;;4590763;19;19945;-33
2022/06/22 07:41:35;;;;;;;;;;;17.30;99.90;;;;;;4590032;19;20348;-32
2022/06/22 07:43:07;;;;;;;;;;;17.30;99.90;;;;;;4590058;19;19919;-32
2022/06/22 07:44:38;;;;;;;;;;;17.30;99.90;;;;;;4589771;19;19919;-42
2022/06/22 07:46:10;;;;;;;;;;;17.30;99.90;;;;;;4589735;19;19922;-42
2022/06/22 07:47:43;;;;;;;;;;;17.30;99.90;;;;;;4590088;19;19923;-40
2022/06/22 07:49:18;;;;;;;;;;;17.40;99.90;;;;;;4589790;19;19948;-33
2022/06/22 07:50:53;;;;;;;;;;;17.40;99.90;;;;;;4590449;19;20288;-38
2022/06/22 07:52:26;;;;;;;;;;;17.40;99.90;;;;;;4588927;19;20352;-33
2022/06/22 07:53:59;;;;;;;;;;;17.40;99.90;;;;;;4589948;19;19923;-33
2022/06/22 07:55:42;;;;;;;;;;;17.50;99.90;;;;;;4588661;19;20342;-40
2022/06/22 07:57:34;;;;;;;;;;;17.50;99.90;;;;;;4590533;19;20278;-33
2022/06/22 07:59:07;;;;;;;;;;;17.50;99.90;;;;;;4590538;19;19915;-32
2022/06/22 08:00:38;;;;;;;;;;;17.50;99.90;;;;;;4589534;19;19910;-33
2022/06/22 08:02:12;;;;;;;;;;;17.50;99.90;;;;;;4591077;19;19919;-34
2022/06/22 08:03:43;;;;;;;;;;;17.50;99.90;;;;;;4590885;19;19919;-33
2022/06/22 08:05:16;;;;;;;;;;;17.50;99.90;;;;;;4592302;19;19926;-36
2022/06/22 08:06:52;;;;;;;;;;;17.50;99.90;;;;;;4591580;19;19923;-33
2022/06/22 08:08:24;;;;;;;;;;;17.50;99.90;;;;;;4590768;19;19918;-34
2022/06/22 08:10:14;;;;;;;;;;;17.50;99.90;;;;;;4591009;19;19922;-33
2022/06/22 08:11:46;;;;;;;;;;;17.60;99.90;;;;;;4591406;19;20236;-32
2022/06/22 08:13:22;;;;;;;;;;;17.60;99.90;;;;;;4591018;19;19919;-33
2022/06/22 08:14:54;;;;;;;;;;;17.60;99.90;;;;;;4590759;19;19915;-32
2022/06/22 08:16:29;;;;;;;;;;;17.50;99.90;;;;;;4590903;19;19926;-33
2022/06/22 08:18:00;;;;;;;;;;;17.60;99.90;;;;;;4591187;19;19917;-32
2022/06/22 08:19:31;;;;;;;;;;;17.60;99.90;;;;;;4591147;19;19915;-33
2022/06/22 08:21:02;;;;;;;;;;;17.60;99.90;;;;;;4590451;19;20349;-32
2022/06/22 08:22:33;;;;;;;;;;;17.70;99.90;;;;;;4590563;19;19922;-33
2022/06/22 08:24:09;;;;;;;;;;;17.70;99.90;;;;;;4590441;19;19927;-32
2022/06/22 08:25:40;;;;;;;;;;;17.70;99.90;;;;;;4591170;19;20005;-33
2022/06/22 08:27:15;;;;;;;;;;;17.70;99.90;;;;;;4591922;19;20340;-34
2022/06/22 08:28:46;;;;;;;;;;;17.80;99.90;;;;;;4591887;19;20271;-34
2022/06/22 08:30:18;;;;;;;;;;;17.70;99.90;;;;;;4590657;19;19998;-33
2022/06/22 08:31:54;;;;;;;;;;;17.70;99.90;;;;;;4590522;19;19923;-34
2022/06/22 08:33:27;;;;;;;;;;;17.80;99.90;;;;;;4591443;19;19919;-32
2022/06/22 08:35:01;;;;;;;;;;;17.80;99.90;;;;;;4590620;19;19996;-36
2022/06/22 08:36:38;;;;;;;;;;;17.70;99.90;;;;;;4591362;19;19915;-32
2022/06/22 08:38:38;;;;;;;;;;;17.70;99.90;;;;;;4591447;19;19923;-33
2022/06/22 08:40:28;;;;;;;;;;;17.80;99.90;;;;;;4589224;19;20410;-34
2022/06/22 08:42:02;;;;;;;;;;;17.80;99.90;;;;;;4589342;19;19936;-32
2022/06/22 08:43:43;;;;;;;;;;;17.80;99.90;;;;;;4587797;19;20332;-34
2022/06/22 08:45:21;;;;;;;;;;;17.80;99.90;;;;;;4589161;19;19915;-33
2022/06/22 08:46:52;;;;;;;;;;;17.80;99.90;;;;;;4589818;19;20356;-40
2022/06/22 08:48:42;;;;;;;;;;;17.90;99.90;;;;;;4589155;19;19915;-36
2022/06/22 08:50:16;;;;;;;;;;;17.90;99.90;;;;;;4589013;19;20392;-32
2022/06/22 08:51:53;;;;;;;;;;;17.90;99.90;;;;;;4589024;19;19919;-33
2022/06/22 08:53:37;;;;;;;;;;;17.90;99.90;;;;;;4589093;19;19975;-33
2022/06/22 08:55:26;;;;;;;;;;;17.90;99.90;;;;;;4588615;19;19927;-39
2022/06/22 08:57:03;;;;;;;;;;;17.90;99.90;;;;;;4588643;19;19932;-36
2022/06/22 08:58:43;;;;;;;;;;;18.00;99.90;;;;;;4588693;19;19960;-35
2022/06/22 09:00:20;;;;;;;;;;;18.00;99.90;;;;;;4589077;19;19928;-36
2022/06/22 09:02:09;;;;;;;;;;;18.10;99.90;;;;;;4589140;19;19915;-40
2022/06/22 09:04:00;;;;;;;;;;;18.10;99.90;;;;;;4589170;19;19919;-36
2022/06/22 09:05:35;;;;;;;;;;;18.10;99.90;;;;;;4589333;19;19915;-35
2022/06/22 09:09:17;;;;;;;;;;;18.10;99.90;;;;;;4588715;19;19918;-34
2022/06/22 09:10:58;;;;;;;;;;;18.20;99.90;;;;;;4588319;19;19915;-37
2022/06/22 09:12:44;;;;;;;;;;;18.10;99.90;;;;;;4588960;19;20254;-34
2022/06/22 09:14:20;;;;;;;;;;;18.10;99.90;;;;;;4588261;19;19940;-37
2022/06/22 09:15:53;;;;;;;;;;;18.20;99.90;;;;;;4588813;19;19923;-34
2022/06/22 09:17:43;;;;;;;;;;;18.20;99.90;;;;;;4589778;19;19933;-39
2022/06/22 09:19:17;;;;;;;;;;;18.20;99.90;;;;;;4590532;19;20326;-35
2022/06/22 09:21:06;;;;;;;;;;;18.20;99.90;;;;;;4591518;19;19932;-36
2022/06/22 09:22:53;;;;;;;;;;;18.20;99.90;;;;;;4591223;19;19915;-36
2022/06/22 09:24:30;;;;;;;;;;;18.20;99.90;;;;;;4590551;19;19940;-37
2022/06/22 09:26:08;;;;;;;;;;;18.20;99.90;;;;;;4589339;19;19944;-34
2022/06/22 09:27:44;;;;;;;;;;;18.20;99.90;;;;;;4590221;19;19907;-37